createdAt,value
2018-09-11T00:00:16.590Z,15.00
2018-09-11T00:02:46.907Z,14.90
2018-09-11T00:05:16.180Z,14.90
2018-09-11T00:07:45.524Z,14.90
2018-09-11T00:10:14.745Z,14.90
2018-09-11T00:12:44.035Z,14.90
2018-09-11T00:15:13.303Z,14.80
2018-09-11T00:17:42.708Z,14.80
2018-09-11T00:20:11.837Z,14.80
2018-09-11T00:22:41.386Z,14.80
2018-09-11T00:25:10.585Z,14.80
2018-09-11T00:27:39.791Z,14.80
2018-09-11T00:30:09.038Z,14.80
2018-09-11T00:32:38.265Z,14.80
2018-09-11T00:35:07.452Z,14.80
2018-09-11T00:37:36.740Z,14.80
2018-09-11T00:40:06.004Z,14.80
2018-09-11T00:42:35.397Z,14.70
2018-09-11T00:45:05.018Z,14.70
2018-09-11T00:47:34.471Z,14.70
2018-09-11T00:50:03.744Z,14.70
2018-09-11T00:52:33.013Z,14.70
2018-09-11T00:55:02.125Z,14.70
2018-09-11T00:57:31.629Z,14.70
2018-09-11T01:00:00.975Z,14.60
2018-09-11T01:02:30.281Z,14.60
2018-09-11T01:04:59.494Z,14.60
2018-09-11T01:07:28.723Z,14.70
2018-09-11T01:09:57.978Z,14.70
2018-09-11T01:12:27.299Z,14.70
2018-09-11T01:14:56.561Z,14.80
2018-09-11T01:17:25.946Z,14.80
2018-09-11T01:19:55.184Z,14.80
2018-09-11T01:22:24.414Z,14.80
2018-09-11T01:24:53.835Z,14.80
2018-09-11T01:27:23.322Z,14.80
2018-09-11T01:29:52.629Z,14.80
2018-09-11T01:32:21.762Z,14.80
2018-09-11T01:34:51.027Z,14.80
2018-09-11T01:37:20.345Z,14.80
2018-09-11T01:39:49.593Z,14.80
2018-09-11T01:42:18.779Z,14.90
2018-09-11T01:44:48.114Z,14.90
2018-09-11T01:47:17.231Z,15.00
2018-09-11T01:49:46.545Z,15.10
2018-09-11T01:52:15.841Z,15.10
2018-09-11T01:54:45.262Z,15.20
2018-09-11T01:57:14.736Z,15.30
2018-09-11T01:59:43.892Z,15.30
2018-09-11T02:02:13.027Z,15.30
2018-09-11T02:04:42.217Z,15.30
2018-09-11T02:07:11.479Z,15.30
2018-09-11T02:09:40.890Z,15.30
2018-09-11T02:12:09.980Z,15.30
2018-09-11T02:14:39.072Z,15.30
2018-09-11T02:17:08.421Z,15.40
2018-09-11T02:19:37.770Z,15.40
2018-09-11T02:22:07.110Z,15.40
2018-09-11T02:24:36.425Z,15.40
2018-09-11T02:27:05.773Z,15.40
2018-09-11T02:29:35.028Z,15.40
2018-09-11T02:32:04.315Z,15.40
2018-09-11T02:34:33.810Z,15.40
2018-09-11T02:37:03.122Z,15.30
2018-09-11T02:39:32.470Z,15.20
2018-09-11T02:42:01.832Z,15.20
2018-09-11T02:44:35.091Z,15.20
2018-09-11T02:47:04.311Z,15.10
2018-09-11T02:49:33.488Z,15.10
2018-09-11T02:52:02.870Z,15.00
2018-09-11T02:54:32.095Z,14.90
2018-09-11T02:57:01.341Z,14.90
2018-09-11T02:59:30.498Z,14.80
2018-09-11T03:01:59.543Z,14.80
2018-09-11T03:04:28.679Z,14.80
2018-09-11T03:06:57.695Z,14.70
2018-09-11T03:09:26.991Z,14.70
2018-09-11T03:11:56.347Z,14.70
2018-09-11T03:14:25.661Z,14.70
2018-09-11T03:16:55.056Z,14.70
2018-09-11T03:19:24.370Z,14.60
2018-09-11T03:21:53.737Z,14.60
2018-09-11T03:24:23.003Z,14.70
2018-09-11T03:26:52.867Z,14.70
2018-09-11T03:29:22.313Z,14.80
2018-09-11T03:31:51.805Z,14.80
2018-09-11T03:34:20.980Z,14.90
2018-09-11T03:36:50.236Z,15.10
2018-09-11T03:39:19.500Z,15.10
2018-09-11T03:41:48.621Z,15.20
2018-09-11T03:44:17.883Z,15.20
2018-09-11T03:46:46.942Z,15.30
2018-09-11T03:49:16.423Z,15.40
2018-09-11T03:51:45.825Z,15.40
2018-09-11T03:54:15.145Z,15.50
2018-09-11T03:56:44.490Z,15.60
2018-09-11T03:59:13.743Z,15.60
2018-09-11T04:01:43.157Z,15.70
2018-09-11T04:04:12.465Z,15.70
2018-09-11T04:06:42.346Z,15.80
2018-09-11T04:09:12.871Z,15.80
2018-09-11T04:11:42.595Z,15.90
2018-09-11T04:14:11.900Z,16.00
2018-09-11T04:16:41.073Z,16.00
2018-09-11T04:19:10.204Z,16.00
2018-09-11T04:21:39.534Z,16.10
2018-09-11T04:24:09.592Z,16.20
2018-09-11T04:26:39.050Z,16.20
2018-09-11T04:29:08.260Z,16.20
2018-09-11T04:31:38.789Z,16.30
2018-09-11T04:34:08.068Z,16.30
2018-09-11T04:36:37.344Z,16.30
2018-09-11T04:39:08.564Z,16.40
2018-09-11T04:41:37.616Z,16.40
2018-09-11T04:44:06.736Z,16.50
2018-09-11T04:46:35.973Z,16.50
2018-09-11T04:49:05.293Z,16.40
2018-09-11T04:51:34.579Z,16.50
2018-09-11T04:54:03.756Z,16.50
2018-09-11T04:56:33.267Z,16.60
2018-09-11T04:59:02.472Z,16.60
2018-09-11T05:01:31.721Z,16.50
2018-09-11T05:04:01.817Z,16.50
2018-09-11T05:06:31.221Z,16.50
2018-09-11T05:09:00.564Z,16.40
2018-09-11T05:11:29.810Z,16.40
2018-09-11T05:13:58.893Z,16.30
2018-09-11T05:16:28.187Z,16.20
2018-09-11T05:18:57.476Z,16.10
2018-09-11T05:21:26.838Z,16.10
2018-09-11T05:23:56.130Z,15.90
2018-09-11T05:26:25.301Z,15.90
2018-09-11T05:28:54.471Z,15.90
2018-09-11T05:31:23.625Z,15.80
2018-09-11T05:33:52.883Z,15.80
2018-09-11T05:36:22.164Z,15.80
2018-09-11T05:38:51.470Z,15.80
2018-09-11T05:41:20.792Z,15.80
2018-09-11T05:43:50.210Z,15.80
2018-09-11T05:46:19.534Z,15.90
2018-09-11T05:48:48.806Z,15.80
2018-09-11T05:51:18.187Z,15.90
2018-09-11T05:53:47.422Z,15.90
2018-09-11T05:56:16.787Z,15.90
2018-09-11T05:58:46.032Z,15.90
2018-09-11T06:01:15.213Z,15.90
2018-09-11T06:03:44.485Z,15.90
2018-09-11T06:06:13.537Z,15.90
2018-09-11T06:08:42.966Z,15.90
2018-09-11T06:11:12.321Z,16.00
2018-09-11T06:13:41.565Z,16.10
2018-09-11T06:16:10.994Z,16.20
2018-09-11T06:18:40.529Z,16.20
2018-09-11T06:21:10.037Z,16.30
2018-09-11T06:23:39.414Z,16.20
2018-09-11T06:26:08.756Z,16.30
2018-09-11T06:28:37.831Z,16.30
2018-09-11T06:31:07.462Z,16.30
2018-09-11T06:33:36.741Z,16.40
2018-09-11T06:36:06.018Z,16.40
2018-09-11T06:38:35.483Z,16.50
2018-09-11T06:41:04.903Z,16.50
2018-09-11T06:43:34.464Z,16.50
2018-09-11T06:46:03.665Z,16.60
2018-09-11T06:48:32.998Z,16.70
2018-09-11T06:51:02.166Z,16.70
2018-09-11T06:53:31.366Z,16.80
2018-09-11T06:56:00.657Z,16.90
2018-09-11T06:58:29.718Z,17.00
2018-09-11T07:00:58.975Z,17.00
2018-09-11T07:03:28.286Z,17.10
2018-09-11T07:05:57.374Z,17.10
2018-09-11T07:08:26.553Z,17.20
2018-09-11T07:10:55.773Z,17.20
2018-09-11T07:13:25.127Z,17.30
2018-09-11T07:15:54.380Z,17.30
2018-09-11T07:18:23.891Z,17.30
2018-09-11T07:20:53.240Z,17.40
2018-09-11T07:23:22.435Z,17.40
2018-09-11T07:25:51.520Z,17.50
2018-09-11T07:28:20.612Z,17.50
2018-09-11T07:30:49.715Z,17.60
2018-09-11T07:33:18.942Z,17.60
2018-09-11T07:35:48.202Z,17.70
2018-09-11T07:38:17.546Z,17.60
2018-09-11T07:40:46.907Z,17.70
2018-09-11T07:43:16.559Z,17.80
2018-09-11T07:45:45.976Z,17.90
2018-09-11T07:48:15.136Z,17.90
2018-09-11T07:50:44.388Z,17.90
2018-09-11T07:53:13.524Z,17.90
2018-09-11T07:55:42.649Z,18.00
2018-09-11T07:58:12.041Z,18.00
2018-09-11T08:00:41.214Z,18.10
2018-09-11T08:03:10.487Z,18.10
2018-09-11T08:05:39.655Z,18.20
2018-09-11T08:08:08.865Z,18.10
2018-09-11T08:10:38.036Z,18.10
2018-09-11T08:13:07.510Z,18.00
2018-09-11T08:15:36.951Z,18.00
2018-09-11T08:18:06.404Z,18.10
2018-09-11T08:20:35.655Z,18.10
2018-09-11T08:23:04.994Z,18.10
2018-09-11T08:25:34.283Z,18.20
2018-09-11T08:28:03.641Z,18.30
2018-09-11T08:30:33.357Z,18.30
2018-09-11T08:33:03.616Z,18.30
2018-09-11T08:35:32.816Z,18.40
2018-09-11T08:38:02.275Z,18.50
2018-09-11T08:40:31.645Z,18.60
2018-09-11T08:43:02.189Z,18.70
2018-09-11T08:45:31.510Z,18.70
2018-09-11T08:48:00.776Z,18.80
2018-09-11T08:50:29.979Z,18.80
2018-09-11T08:52:58.995Z,18.90
2018-09-11T08:55:28.275Z,19.00
2018-09-11T08:57:57.493Z,19.00
2018-09-11T09:00:26.741Z,19.00
2018-09-11T09:02:55.861Z,19.00
2018-09-11T09:05:25.109Z,19.10
2018-09-11T09:07:54.426Z,19.20
2018-09-11T09:10:23.801Z,19.30
2018-09-11T09:12:53.090Z,19.40
2018-09-11T09:15:22.506Z,19.50
2018-09-11T09:17:51.698Z,19.60
2018-09-11T09:20:20.931Z,19.60
2018-09-11T09:22:50.047Z,19.70
2018-09-11T09:25:19.408Z,19.80
2018-09-11T09:27:48.697Z,19.90
2018-09-11T09:30:17.926Z,19.90
2018-09-11T09:32:47.204Z,19.90
2018-09-11T09:35:16.348Z,19.90
2018-09-11T09:37:45.571Z,20.00
2018-09-11T09:40:14.788Z,20.10
2018-09-11T09:42:44.125Z,20.30
2018-09-11T09:45:13.294Z,20.50
2018-09-11T09:47:42.603Z,20.60
2018-09-11T09:50:12.034Z,20.60
2018-09-11T09:52:43.169Z,20.80
2018-09-11T09:55:12.439Z,20.80
2018-09-11T09:57:41.691Z,21.00
2018-09-11T10:00:10.954Z,21.00
2018-09-11T10:02:40.193Z,21.10
2018-09-11T10:05:09.306Z,21.30
2018-09-11T10:07:38.532Z,21.30
2018-09-11T10:10:07.764Z,21.40
2018-09-11T10:12:37.097Z,21.50
2018-09-11T10:15:06.518Z,21.60
2018-09-11T10:17:35.823Z,21.80
2018-09-11T10:20:05.334Z,22.10
2018-09-11T10:22:34.854Z,22.20
2018-09-11T10:25:04.186Z,22.40
2018-09-11T10:27:33.589Z,22.40
2018-09-11T10:30:02.956Z,22.20
2018-09-11T10:32:32.373Z,22.10
2018-09-11T10:35:01.785Z,22.10
2018-09-11T10:37:31.196Z,22.30
2018-09-11T10:40:00.673Z,22.30
2018-09-11T10:42:30.002Z,22.40
2018-09-11T10:44:59.322Z,22.40
2018-09-11T10:47:28.536Z,22.60
2018-09-11T10:49:57.725Z,22.70
2018-09-11T10:52:26.913Z,22.80
2018-09-11T10:54:56.140Z,22.70
2018-09-11T10:57:25.433Z,22.80
2018-09-11T10:59:54.947Z,23.00
2018-09-11T11:02:24.572Z,23.30
2018-09-11T11:04:54.016Z,23.50
2018-09-11T11:07:24.054Z,23.60
2018-09-11T11:09:53.580Z,23.50
2018-09-11T11:12:22.868Z,23.50
2018-09-11T11:14:52.356Z,23.40
2018-09-11T11:17:21.700Z,23.40
2018-09-11T11:19:51.259Z,23.50
2018-09-11T11:22:20.888Z,23.60
2018-09-11T11:24:50.253Z,23.50
2018-09-11T11:27:19.466Z,23.80
2018-09-11T11:29:48.666Z,24.00
2018-09-11T11:32:18.246Z,24.20
2018-09-11T11:34:47.627Z,24.10
2018-09-11T11:37:17.274Z,23.90
2018-09-11T11:39:46.524Z,24.00
2018-09-11T11:42:15.938Z,24.10
2018-09-11T11:44:45.094Z,24.00
2018-09-11T11:47:14.306Z,24.20
2018-09-11T11:49:43.573Z,24.30
2018-09-11T11:52:12.751Z,24.50
2018-09-11T11:54:41.964Z,24.50
2018-09-11T11:57:11.317Z,24.50
2018-09-11T11:59:40.765Z,24.50
2018-09-11T12:02:10.240Z,24.50
2018-09-11T12:04:39.441Z,24.50
2018-09-11T12:07:08.682Z,24.60
2018-09-11T12:09:37.914Z,24.80
2018-09-11T12:12:07.266Z,24.80
2018-09-11T12:14:36.568Z,24.70
2018-09-11T12:17:06.296Z,24.80
2018-09-11T12:19:35.587Z,25.00
2018-09-11T12:22:05.210Z,25.00
2018-09-11T12:24:34.536Z,24.90
2018-09-11T12:27:03.852Z,25.10
2018-09-11T12:29:33.162Z,25.10
2018-09-11T12:32:02.465Z,25.10
2018-09-11T12:34:31.789Z,25.00
2018-09-11T12:37:01.353Z,25.10
2018-09-11T12:39:30.851Z,25.20
2018-09-11T12:42:00.276Z,25.30
2018-09-11T12:44:29.431Z,25.60
2018-09-11T12:46:58.813Z,25.80
2018-09-11T12:49:27.871Z,25.90
2018-09-11T12:51:57.029Z,25.80
2018-09-11T12:54:26.230Z,25.50
2018-09-11T12:56:55.479Z,25.10
2018-09-11T12:59:24.964Z,25.10
2018-09-11T13:01:54.418Z,25.20
2018-09-11T13:04:23.781Z,25.30
2018-09-11T13:06:53.157Z,25.60
2018-09-11T13:09:22.543Z,25.70
2018-09-11T13:11:52.014Z,25.90
2018-09-11T13:14:21.536Z,26.20
2018-09-11T13:16:50.729Z,26.50
2018-09-11T13:19:20.142Z,26.60
2018-09-11T13:21:49.630Z,26.60
2018-09-11T13:24:18.938Z,26.80
2018-09-11T13:26:48.182Z,26.50
2018-09-11T13:29:17.491Z,26.50
2018-09-11T13:31:47.067Z,26.30
2018-09-11T13:34:16.493Z,26.40
2018-09-11T13:36:45.921Z,26.10
2018-09-11T13:39:15.269Z,26.00
2018-09-11T13:41:44.481Z,26.00
2018-09-11T13:44:13.737Z,26.20
2018-09-11T13:46:43.026Z,26.30
2018-09-11T13:49:12.403Z,26.30
2018-09-11T13:51:41.910Z,26.20
2018-09-11T13:54:11.285Z,26.20
2018-09-11T13:56:40.541Z,26.20
2018-09-11T13:59:09.755Z,26.20
2018-09-11T14:01:39.093Z,26.20
2018-09-11T14:04:08.520Z,26.40
2018-09-11T14:06:37.823Z,26.40
2018-09-11T14:09:10.093Z,26.20
2018-09-11T14:11:39.315Z,26.20
2018-09-11T14:14:08.683Z,26.40
2018-09-11T14:16:38.180Z,26.10
2018-09-11T14:19:07.619Z,26.30
2018-09-11T14:21:36.917Z,26.20
2018-09-11T14:24:06.597Z,26.30
2018-09-11T14:26:35.958Z,26.50
2018-09-11T14:29:05.446Z,26.50
2018-09-11T14:31:34.908Z,26.50
2018-09-11T14:34:04.233Z,26.50
2018-09-11T14:36:33.380Z,26.50
2018-09-11T14:39:03.051Z,26.60
2018-09-11T14:41:32.507Z,26.60
2018-09-11T14:44:01.890Z,26.60
2018-09-11T14:46:31.246Z,26.70
2018-09-11T14:49:00.548Z,26.70
2018-09-11T14:51:29.996Z,26.80
2018-09-11T14:53:59.415Z,26.70
2018-09-11T14:56:28.586Z,26.70
2018-09-11T14:58:57.882Z,26.60
2018-09-11T15:01:27.223Z,26.50
2018-09-11T15:03:56.548Z,26.70
2018-09-11T15:06:26.032Z,26.70
2018-09-11T15:08:55.621Z,26.60
2018-09-11T15:11:24.975Z,26.70
2018-09-11T15:13:54.509Z,26.70
2018-09-11T15:16:23.767Z,26.70
2018-09-11T15:18:53.114Z,26.60
2018-09-11T15:21:22.580Z,26.70
2018-09-11T15:23:52.008Z,26.70
2018-09-11T15:26:21.510Z,26.50
2018-09-11T15:28:50.953Z,26.60
2018-09-11T15:31:20.136Z,26.60
2018-09-11T15:33:49.595Z,26.70
2018-09-11T15:36:18.884Z,26.70
2018-09-11T15:38:48.055Z,26.80
2018-09-11T15:41:17.223Z,26.80
2018-09-11T15:43:46.411Z,26.90
2018-09-11T15:46:15.743Z,26.70
2018-09-11T15:48:45.204Z,26.80
2018-09-11T15:51:14.546Z,26.60
2018-09-11T15:53:43.864Z,26.40
2018-09-11T15:56:13.045Z,26.40
2018-09-11T15:58:42.535Z,26.40
2018-09-11T16:01:11.756Z,26.40
2018-09-11T16:03:41.017Z,26.20
2018-09-11T16:06:10.338Z,26.10
2018-09-11T16:08:40.171Z,26.00
2018-09-11T16:11:09.694Z,25.90
2018-09-11T16:13:38.986Z,26.00
2018-09-11T16:16:08.269Z,25.90
2018-09-11T16:18:37.689Z,26.00
2018-09-11T16:21:07.016Z,26.00
2018-09-11T16:23:36.126Z,26.00
2018-09-11T16:26:05.306Z,26.00
2018-09-11T16:28:34.507Z,26.00
2018-09-11T16:31:03.629Z,25.90
2018-09-11T16:33:34.027Z,25.80
2018-09-11T16:36:03.375Z,25.80
2018-09-11T16:38:32.905Z,25.70
2018-09-11T16:41:02.329Z,25.70
2018-09-11T16:43:31.602Z,25.70
2018-09-11T16:46:00.528Z,25.60
2018-09-11T16:48:29.639Z,25.60
2018-09-11T16:50:58.681Z,25.50
2018-09-11T16:53:27.995Z,25.40
2018-09-11T16:55:57.378Z,25.40
2018-09-11T16:58:26.938Z,25.40
2018-09-11T17:00:56.270Z,25.30
2018-09-11T17:03:28.941Z,25.30
2018-09-11T17:05:58.347Z,25.30
2018-09-11T17:08:46.067Z,25.20
2018-09-11T17:14:07.970Z,25.10
2018-09-11T17:16:37.392Z,25.00
2018-09-11T17:19:06.801Z,25.00
2018-09-11T17:21:36.248Z,24.90
2018-09-11T17:24:05.571Z,24.80
2018-09-11T17:26:35.198Z,24.80
2018-09-11T17:29:04.575Z,24.70
2018-09-11T17:31:33.840Z,24.60
2018-09-11T17:34:03.052Z,24.60
2018-09-11T17:36:32.396Z,24.60
2018-09-11T17:39:01.641Z,24.60
2018-09-11T17:41:30.859Z,24.50
2018-09-11T17:44:00.019Z,24.40
2018-09-11T17:46:29.346Z,24.40
2018-09-11T17:48:58.842Z,24.40
2018-09-11T17:51:28.181Z,24.40
2018-09-11T17:53:57.375Z,24.30
2018-09-11T17:56:26.729Z,24.30
2018-09-11T17:58:56.194Z,24.20
2018-09-11T18:01:25.765Z,24.10
2018-09-11T18:03:55.779Z,24.10
2018-09-11T18:06:25.025Z,24.00
2018-09-11T18:08:54.358Z,24.00
2018-09-11T18:11:23.676Z,23.90
2018-09-11T18:13:53.152Z,23.80
2018-09-11T18:16:22.633Z,23.80
2018-09-11T18:18:52.033Z,23.80
2018-09-11T18:21:21.780Z,23.80
2018-09-11T18:35:24.716Z,23.80
2018-09-11T18:37:53.973Z,23.80
2018-09-11T18:40:23.424Z,23.80
2018-09-11T18:42:52.860Z,23.80
2018-09-11T18:45:22.296Z,23.90
2018-09-11T18:47:51.839Z,23.80
2018-09-11T18:50:21.249Z,23.90
2018-09-11T18:52:50.626Z,24.00
2018-09-11T18:55:20.156Z,24.00
2018-09-11T18:57:49.439Z,24.10
2018-09-11T19:00:22.803Z,24.00
2018-09-11T19:02:52.581Z,24.00
2018-09-11T19:05:22.037Z,23.80
2018-09-11T19:07:51.369Z,23.70
2018-09-11T19:10:20.783Z,23.60
2018-09-11T19:12:50.595Z,23.60
2018-09-11T19:15:25.837Z,23.50
2018-09-11T19:17:55.253Z,23.40
2018-09-11T19:20:24.862Z,23.20
2018-09-11T19:22:54.440Z,23.10
2018-09-11T19:25:23.758Z,22.90
2018-09-11T19:27:54.011Z,22.80
2018-09-11T19:30:23.363Z,22.70
2018-09-11T19:32:52.692Z,22.50
2018-09-11T19:35:22.954Z,22.30
2018-09-11T19:37:53.273Z,22.20
2018-09-11T19:40:22.580Z,22.10
2018-09-11T19:42:51.970Z,22.00
2018-09-11T19:45:21.308Z,21.90
2018-09-11T19:47:50.602Z,21.90
2018-09-11T19:50:19.921Z,21.80
2018-09-11T19:52:49.284Z,21.70
2018-09-11T19:55:18.880Z,21.70
2018-09-11T19:57:48.413Z,21.60
2018-09-11T20:00:17.692Z,21.60
2018-09-11T20:02:47.214Z,21.50
2018-09-11T20:05:16.617Z,21.50
2018-09-11T20:07:45.892Z,21.40
2018-09-11T20:10:15.225Z,21.40
2018-09-11T20:12:44.509Z,21.30
2018-09-11T20:15:13.658Z,21.30
2018-09-11T20:17:42.820Z,21.20
2018-09-11T20:20:12.239Z,21.20
2018-09-11T20:22:41.569Z,21.10
2018-09-11T20:25:11.312Z,21.10
2018-09-11T20:27:40.585Z,21.00
2018-09-11T20:30:10.003Z,21.00
2018-09-11T20:32:39.324Z,21.00
2018-09-11T20:35:08.751Z,21.00
2018-09-11T20:37:38.824Z,20.90
2018-09-11T20:40:08.619Z,21.00
2018-09-11T20:42:37.967Z,21.00
2018-09-11T20:45:07.381Z,21.00
2018-09-11T20:47:36.529Z,21.10
2018-09-11T20:50:06.092Z,21.20
2018-09-11T20:52:35.612Z,21.30
2018-09-11T20:55:04.815Z,21.30
2018-09-11T20:57:34.073Z,21.40
2018-09-11T21:00:03.505Z,21.40
2018-09-11T21:02:32.761Z,21.60
2018-09-11T21:05:02.213Z,21.70
2018-09-11T21:07:31.529Z,21.70
2018-09-11T21:10:00.831Z,21.80
2018-09-11T21:12:30.141Z,21.90
2018-09-11T21:14:59.378Z,21.90
2018-09-11T21:17:28.632Z,21.90
2018-09-11T21:19:58.188Z,21.90
2018-09-11T21:22:27.420Z,21.90
2018-09-11T21:24:56.726Z,21.90
2018-09-11T21:27:25.984Z,22.00
2018-09-11T21:29:55.260Z,22.00
2018-09-11T21:32:24.704Z,22.00
2018-09-11T21:34:54.116Z,21.80
2018-09-11T21:37:23.291Z,21.80
2018-09-11T21:39:53.679Z,21.60
2018-09-11T21:42:23.677Z,21.50
2018-09-11T21:44:52.909Z,21.50
2018-09-11T21:47:22.235Z,21.50
2018-09-11T21:49:51.540Z,21.50
2018-09-11T21:52:20.846Z,21.40
2018-09-11T21:54:50.255Z,21.40
2018-09-11T21:57:19.772Z,21.30
2018-09-11T21:59:49.050Z,21.30
2018-09-11T22:02:18.518Z,21.20
2018-09-11T22:04:47.935Z,21.20
2018-09-11T22:07:17.318Z,21.20
2018-09-11T22:09:46.718Z,21.20
2018-09-11T22:12:16.024Z,21.20
2018-09-11T22:14:45.658Z,21.10
2018-09-11T22:17:14.930Z,21.10
2018-09-11T22:19:43.967Z,21.10
2018-09-11T22:22:13.877Z,21.00
2018-09-11T22:24:43.171Z,21.00
2018-09-11T22:27:12.427Z,21.00
2018-09-11T22:29:41.674Z,20.90
2018-09-11T22:32:11.029Z,20.90
2018-09-11T22:34:40.144Z,20.90
2018-09-11T22:37:09.536Z,20.80
2018-09-11T22:39:38.774Z,20.80
2018-09-11T22:42:08.032Z,20.70
2018-09-11T22:44:38.368Z,20.70
2018-09-11T22:47:07.696Z,20.60
2018-09-11T22:49:36.968Z,20.60
2018-09-11T22:52:06.507Z,20.60
2018-09-11T22:54:35.725Z,20.50
2018-09-11T22:57:05.037Z,20.50
2018-09-11T22:59:34.319Z,20.40
2018-09-11T23:02:03.615Z,20.40
2018-09-11T23:04:32.628Z,20.40
2018-09-11T23:07:01.933Z,20.30
2018-09-11T23:09:31.119Z,20.20
2018-09-11T23:12:01.348Z,20.20
2018-09-11T23:14:30.450Z,20.30
2018-09-11T23:16:59.556Z,20.30
2018-09-11T23:19:28.833Z,20.20
2018-09-11T23:21:58.125Z,20.30
2018-09-11T23:24:27.268Z,20.30
2018-09-11T23:26:56.694Z,20.20
2018-09-11T23:29:26.086Z,20.10
2018-09-11T23:31:55.475Z,20.10
2018-09-11T23:34:24.709Z,20.00
2018-09-11T23:36:54.106Z,20.00
2018-09-11T23:39:23.241Z,20.00
2018-09-11T23:41:53.025Z,20.10
2018-09-11T23:44:22.509Z,20.10
2018-09-11T23:46:52.153Z,20.10
2018-09-11T23:49:21.302Z,20.10
2018-09-11T23:51:50.519Z,20.20
2018-09-11T23:54:19.737Z,20.20
2018-09-11T23:56:49.020Z,20.20
2018-09-11T23:59:18.314Z,20.20
